sensor_id;sensor_type;location;lat;lon;timestamp;P1;durP1;ratioP1;P2;durP2;ratioP2
7519;SDS011;3801;48.876;10.184;2023-10-08T00:00:10;8.17;;;2.87;;
7519;SDS011;3801;48.876;10.184;2023-10-08T00:05:28;5.60;;;3.37;;
7519;SDS011;3801;48.876;10.184;2023-10-08T00:10:35;6.47;;;2.83;;
7519;SDS011;3801;48.876;10.184;2023-10-08T00:15:39;3.97;;;2.90;;
7519;SDS011;3801;48.876;10.184;2023-10-08T00:20:47;7.93;;;3.03;;
7519;SDS011;3801;48.876;10.184;2023-10-08T00:25:58;5.37;;;2.87;;
7519;SDS011;3801;48.876;10.184;2023-10-08T00:31:06;6.07;;;2.90;;
7519;SDS011;3801;48.876;10.184;2023-10-08T00:36:14;5.80;;;3.00;;
7519;SDS011;3801;48.876;10.184;2023-10-08T00:41:22;5.23;;;3.17;;
7519;SDS011;3801;48.876;10.184;2023-10-08T00:46:30;7.70;;;2.50;;
7519;SDS011;3801;48.876;10.184;2023-10-08T00:51:38;5.00;;;2.87;;
7519;SDS011;3801;48.876;10.184;2023-10-08T00:56:46;4.33;;;3.03;;
7519;SDS011;3801;48.876;10.184;2023-10-08T01:01:55;6.07;;;2.70;;
7519;SDS011;3801;48.876;10.184;2023-10-08T01:07:03;5.27;;;2.70;;
7519;SDS011;3801;48.876;10.184;2023-10-08T01:12:17;7.37;;;3.17;;
7519;SDS011;3801;48.876;10.184;2023-10-08T01:17:24;4.77;;;2.70;;
7519;SDS011;3801;48.876;10.184;2023-10-08T01:22:29;7.73;;;3.47;;
7519;SDS011;3801;48.876;10.184;2023-10-08T01:27:35;7.63;;;3.27;;
7519;SDS011;3801;48.876;10.184;2023-10-08T01:32:39;4.97;;;2.73;;
7519;SDS011;3801;48.876;10.184;2023-10-08T01:37:44;4.90;;;2.70;;
7519;SDS011;3801;48.876;10.184;2023-10-08T01:42:50;7.40;;;3.23;;
7519;SDS011;3801;48.876;10.184;2023-10-08T01:47:54;4.90;;;2.90;;
7519;SDS011;3801;48.876;10.184;2023-10-08T01:53:00;8.37;;;3.50;;
7519;SDS011;3801;48.876;10.184;2023-10-08T01:58:04;7.53;;;3.37;;
7519;SDS011;3801;48.876;10.184;2023-10-08T02:03:08;6.40;;;2.90;;
7519;SDS011;3801;48.876;10.184;2023-10-08T02:08:13;7.47;;;3.43;;
7519;SDS011;3801;48.876;10.184;2023-10-08T02:13:19;11.53;;;3.60;;
7519;SDS011;3801;48.876;10.184;2023-10-08T02:18:22;8.50;;;3.30;;
7519;SDS011;3801;48.876;10.184;2023-10-08T02:23:29;9.13;;;3.03;;
7519;SDS011;3801;48.876;10.184;2023-10-08T02:28:33;6.13;;;3.27;;
7519;SDS011;3801;48.876;10.184;2023-10-08T02:33:37;6.93;;;3.00;;
7519;SDS011;3801;48.876;10.184;2023-10-08T02:38:42;8.40;;;3.00;;
7519;SDS011;3801;48.876;10.184;2023-10-08T02:43:46;6.93;;;3.37;;
7519;SDS011;3801;48.876;10.184;2023-10-08T02:48:50;7.13;;;3.30;;
7519;SDS011;3801;48.876;10.184;2023-10-08T02:53:55;8.40;;;3.40;;
7519;SDS011;3801;48.876;10.184;2023-10-08T02:58:59;8.20;;;3.37;;
7519;SDS011;3801;48.876;10.184;2023-10-08T03:04:03;7.43;;;3.13;;
7519;SDS011;3801;48.876;10.184;2023-10-08T03:09:19;5.83;;;3.17;;
7519;SDS011;3801;48.876;10.184;2023-10-08T03:14:25;6.13;;;3.07;;
7519;SDS011;3801;48.876;10.184;2023-10-08T03:19:29;8.93;;;3.30;;
7519;SDS011;3801;48.876;10.184;2023-10-08T03:24:34;6.53;;;3.30;;
7519;SDS011;3801;48.876;10.184;2023-10-08T03:29:40;9.13;;;2.87;;
7519;SDS011;3801;48.876;10.184;2023-10-08T03:34:48;6.63;;;3.53;;
7519;SDS011;3801;48.876;10.184;2023-10-08T03:39:53;6.77;;;3.23;;
7519;SDS011;3801;48.876;10.184;2023-10-08T03:45:09;4.10;;;2.50;;
7519;SDS011;3801;48.876;10.184;2023-10-08T03:50:14;6.93;;;2.53;;
7519;SDS011;3801;48.876;10.184;2023-10-08T03:55:21;7.83;;;3.27;;
7519;SDS011;3801;48.876;10.184;2023-10-08T04:00:28;9.93;;;3.50;;
7519;SDS011;3801;48.876;10.184;2023-10-08T04:05:34;6.03;;;2.93;;
7519;SDS011;3801;48.876;10.184;2023-10-08T04:10:48;5.50;;;3.20;;
7519;SDS011;3801;48.876;10.184;2023-10-08T04:16:09;5.73;;;2.87;;
7519;SDS011;3801;48.876;10.184;2023-10-08T04:21:13;4.57;;;2.43;;
7519;SDS011;3801;48.876;10.184;2023-10-08T04:26:21;8.50;;;3.63;;
7519;SDS011;3801;48.876;10.184;2023-10-08T04:31:25;5.50;;;3.10;;
7519;SDS011;3801;48.876;10.184;2023-10-08T04:36:39;6.63;;;2.90;;
7519;SDS011;3801;48.876;10.184;2023-10-08T04:41:44;4.37;;;2.63;;
7519;SDS011;3801;48.876;10.184;2023-10-08T04:46:54;5.37;;;2.60;;
7519;SDS011;3801;48.876;10.184;2023-10-08T04:51:58;7.27;;;3.63;;
7519;SDS011;3801;48.876;10.184;2023-10-08T04:57:03;4.83;;;2.93;;
7519;SDS011;3801;48.876;10.184;2023-10-08T05:02:08;5.50;;;2.57;;
7519;SDS011;3801;48.876;10.184;2023-10-08T05:07:36;6.10;;;3.10;;
7519;SDS011;3801;48.876;10.184;2023-10-08T05:13:00;5.20;;;2.97;;
7519;SDS011;3801;48.876;10.184;2023-10-08T05:18:18;6.43;;;2.97;;
7519;SDS011;3801;48.876;10.184;2023-10-08T05:23:40;5.47;;;2.80;;
7519;SDS011;3801;48.876;10.184;2023-10-08T05:29:12;7.33;;;3.27;;
7519;SDS011;3801;48.876;10.184;2023-10-08T05:34:33;5.07;;;3.00;;
7519;SDS011;3801;48.876;10.184;2023-10-08T05:39:44;5.33;;;2.97;;
7519;SDS011;3801;48.876;10.184;2023-10-08T05:45:00;8.90;;;3.10;;
7519;SDS011;3801;48.876;10.184;2023-10-08T05:50:16;5.07;;;2.97;;
7519;SDS011;3801;48.876;10.184;2023-10-08T05:55:41;5.47;;;2.93;;
7519;SDS011;3801;48.876;10.184;2023-10-08T06:00:51;5.17;;;3.57;;
7519;SDS011;3801;48.876;10.184;2023-10-08T06:06:28;5.40;;;3.03;;
7519;SDS011;3801;48.876;10.184;2023-10-08T06:11:49;4.70;;;2.87;;
7519;SDS011;3801;48.876;10.184;2023-10-08T06:17:14;5.03;;;3.00;;
7519;SDS011;3801;48.876;10.184;2023-10-08T06:22:26;3.57;;;2.80;;
7519;SDS011;3801;48.876;10.184;2023-10-08T06:27:30;6.10;;;3.17;;
7519;SDS011;3801;48.876;10.184;2023-10-08T06:32:35;3.47;;;2.60;;
7519;SDS011;3801;48.876;10.184;2023-10-08T06:37:40;5.23;;;3.27;;
7519;SDS011;3801;48.876;10.184;2023-10-08T06:42:44;4.70;;;2.93;;
7519;SDS011;3801;48.876;10.184;2023-10-08T06:47:49;6.90;;;3.20;;
7519;SDS011;3801;48.876;10.184;2023-10-08T06:52:53;6.37;;;2.87;;
7519;SDS011;3801;48.876;10.184;2023-10-08T06:57:56;7.17;;;2.63;;
7519;SDS011;3801;48.876;10.184;2023-10-08T07:03:04;6.33;;;3.17;;
7519;SDS011;3801;48.876;10.184;2023-10-08T07:08:08;5.43;;;2.80;;
7519;SDS011;3801;48.876;10.184;2023-10-08T07:13:15;7.60;;;2.97;;
7519;SDS011;3801;48.876;10.184;2023-10-08T07:18:21;6.70;;;3.00;;
7519;SDS011;3801;48.876;10.184;2023-10-08T07:23:27;4.17;;;2.43;;
7519;SDS011;3801;48.876;10.184;2023-10-08T07:28:35;8.70;;;3.03;;
7519;SDS011;3801;48.876;10.184;2023-10-08T07:33:40;4.93;;;2.90;;
7519;SDS011;3801;48.876;10.184;2023-10-08T07:38:45;8.07;;;3.07;;
7519;SDS011;3801;48.876;10.184;2023-10-08T07:43:49;7.20;;;3.00;;
7519;SDS011;3801;48.876;10.184;2023-10-08T07:48:59;5.43;;;2.73;;
7519;SDS011;3801;48.876;10.184;2023-10-08T07:54:03;5.27;;;3.03;;
7519;SDS011;3801;48.876;10.184;2023-10-08T07:59:12;7.63;;;3.23;;
7519;SDS011;3801;48.876;10.184;2023-10-08T08:04:18;5.37;;;3.57;;
7519;SDS011;3801;48.876;10.184;2023-10-08T08:09:25;5.87;;;3.27;;
7519;SDS011;3801;48.876;10.184;2023-10-08T08:14:28;8.90;;;3.53;;
7519;SDS011;3801;48.876;10.184;2023-10-08T08:19:33;4.73;;;2.80;;
7519;SDS011;3801;48.876;10.184;2023-10-08T08:24:38;8.80;;;3.33;;
7519;SDS011;3801;48.876;10.184;2023-10-08T08:29:42;7.50;;;3.17;;
7519;SDS011;3801;48.876;10.184;2023-10-08T08:34:52;9.40;;;3.50;;
7519;SDS011;3801;48.876;10.184;2023-10-08T08:39:57;6.77;;;3.40;;
7519;SDS011;3801;48.876;10.184;2023-10-08T08:45:01;6.47;;;3.60;;
7519;SDS011;3801;48.876;10.184;2023-10-08T08:50:08;9.00;;;3.23;;
7519;SDS011;3801;48.876;10.184;2023-10-08T08:55:12;7.33;;;3.23;;
7519;SDS011;3801;48.876;10.184;2023-10-08T09:00:17;5.10;;;3.20;;
7519;SDS011;3801;48.876;10.184;2023-10-08T09:05:23;7.00;;;3.77;;
7519;SDS011;3801;48.876;10.184;2023-10-08T09:10:29;5.43;;;3.50;;
7519;SDS011;3801;48.876;10.184;2023-10-08T09:15:40;6.80;;;3.57;;
7519;SDS011;3801;48.876;10.184;2023-10-08T09:20:45;6.77;;;3.43;;
7519;SDS011;3801;48.876;10.184;2023-10-08T09:25:50;6.77;;;3.60;;
7519;SDS011;3801;48.876;10.184;2023-10-08T09:30:55;7.63;;;3.50;;
7519;SDS011;3801;48.876;10.184;2023-10-08T09:36:02;7.00;;;3.37;;
7519;SDS011;3801;48.876;10.184;2023-10-08T09:41:07;7.07;;;3.57;;
7519;SDS011;3801;48.876;10.184;2023-10-08T09:46:15;7.77;;;3.93;;
7519;SDS011;3801;48.876;10.184;2023-10-08T09:51:22;5.70;;;3.77;;
7519;SDS011;3801;48.876;10.184;2023-10-08T09:56:27;6.00;;;3.43;;
7519;SDS011;3801;48.876;10.184;2023-10-08T10:01:32;6.30;;;3.47;;
7519;SDS011;3801;48.876;10.184;2023-10-08T10:06:37;5.17;;;3.50;;
7519;SDS011;3801;48.876;10.184;2023-10-08T10:11:45;6.60;;;3.47;;
7519;SDS011;3801;48.876;10.184;2023-10-08T10:17:07;7.83;;;3.27;;
7519;SDS011;3801;48.876;10.184;2023-10-08T10:22:30;8.97;;;4.23;;
7519;SDS011;3801;48.876;10.184;2023-10-08T10:27:34;6.20;;;3.20;;
7519;SDS011;3801;48.876;10.184;2023-10-08T10:32:39;8.40;;;3.60;;
7519;SDS011;3801;48.876;10.184;2023-10-08T10:37:52;6.80;;;3.60;;
7519;SDS011;3801;48.876;10.184;2023-10-08T10:42:57;9.03;;;3.57;;
7519;SDS011;3801;48.876;10.184;2023-10-08T10:48:02;6.30;;;3.83;;
7519;SDS011;3801;48.876;10.184;2023-10-08T10:53:18;7.87;;;3.93;;
7519;SDS011;3801;48.876;10.184;2023-10-08T10:58:21;9.17;;;4.17;;
7519;SDS011;3801;48.876;10.184;2023-10-08T11:03:27;8.43;;;3.40;;
7519;SDS011;3801;48.876;10.184;2023-10-08T11:08:34;6.10;;;3.20;;
7519;SDS011;3801;48.876;10.184;2023-10-08T11:13:38;7.13;;;3.70;;
7519;SDS011;3801;48.876;10.184;2023-10-08T11:18:43;8.60;;;3.93;;
7519;SDS011;3801;48.876;10.184;2023-10-08T11:23:51;5.77;;;3.40;;
7519;SDS011;3801;48.876;10.184;2023-10-08T11:29:01;6.00;;;3.83;;
7519;SDS011;3801;48.876;10.184;2023-10-08T11:34:05;7.07;;;3.80;;
7519;SDS011;3801;48.876;10.184;2023-10-08T11:39:13;4.83;;;3.27;;
7519;SDS011;3801;48.876;10.184;2023-10-08T11:44:23;7.97;;;3.37;;
7519;SDS011;3801;48.876;10.184;2023-10-08T11:49:32;7.40;;;4.23;;
7519;SDS011;3801;48.876;10.184;2023-10-08T11:54:39;6.83;;;3.33;;
7519;SDS011;3801;48.876;10.184;2023-10-08T11:59:44;8.33;;;3.97;;
7519;SDS011;3801;48.876;10.184;2023-10-08T12:04:48;8.40;;;3.83;;
7519;SDS011;3801;48.876;10.184;2023-10-08T12:09:55;8.40;;;3.47;;
7519;SDS011;3801;48.876;10.184;2023-10-08T12:14:58;8.00;;;3.90;;
7519;SDS011;3801;48.876;10.184;2023-10-08T12:20:06;6.10;;;3.55;;
7519;SDS011;3801;48.876;10.184;2023-10-08T12:25:26;6.55;;;3.88;;
7519;SDS011;3801;48.876;10.184;2023-10-08T12:30:30;9.27;;;4.13;;
7519;SDS011;3801;48.876;10.184;2023-10-08T12:35:33;7.20;;;3.60;;
7519;SDS011;3801;48.876;10.184;2023-10-08T12:40:40;6.68;;;3.65;;
7519;SDS011;3801;48.876;10.184;2023-10-08T12:45:55;6.38;;;3.83;;
7519;SDS011;3801;48.876;10.184;2023-10-08T12:50:59;8.20;;;3.78;;
7519;SDS011;3801;48.876;10.184;2023-10-08T12:56:04;6.00;;;3.92;;
7519;SDS011;3801;48.876;10.184;2023-10-08T13:01:08;5.70;;;3.42;;
7519;SDS011;3801;48.876;10.184;2023-10-08T13:06:12;8.68;;;3.55;;
7519;SDS011;3801;48.876;10.184;2023-10-08T13:11:25;7.85;;;4.32;;
7519;SDS011;3801;48.876;10.184;2023-10-08T13:16:31;9.95;;;3.55;;
7519;SDS011;3801;48.876;10.184;2023-10-08T13:21:35;9.15;;;4.22;;
7519;SDS011;3801;48.876;10.184;2023-10-08T13:26:40;8.30;;;4.13;;
7519;SDS011;3801;48.876;10.184;2023-10-08T13:31:49;7.35;;;4.00;;
7519;SDS011;3801;48.876;10.184;2023-10-08T13:36:53;11.30;;;4.28;;
7519;SDS011;3801;48.876;10.184;2023-10-08T13:41:59;7.78;;;3.70;;
7519;SDS011;3801;48.876;10.184;2023-10-08T13:47:03;9.63;;;3.88;;
7519;SDS011;3801;48.876;10.184;2023-10-08T13:52:07;9.60;;;4.05;;
7519;SDS011;3801;48.876;10.184;2023-10-08T13:57:12;8.32;;;3.97;;
7519;SDS011;3801;48.876;10.184;2023-10-08T14:02:17;7.60;;;3.92;;
7519;SDS011;3801;48.876;10.184;2023-10-08T14:07:23;8.90;;;4.13;;
7519;SDS011;3801;48.876;10.184;2023-10-08T14:12:28;9.70;;;3.80;;
7519;SDS011;3801;48.876;10.184;2023-10-08T14:17:33;10.97;;;4.17;;
7519;SDS011;3801;48.876;10.184;2023-10-08T14:22:45;11.83;;;3.90;;
7519;SDS011;3801;48.876;10.184;2023-10-08T14:27:51;8.40;;;3.83;;
7519;SDS011;3801;48.876;10.184;2023-10-08T14:32:55;8.23;;;3.77;;
7519;SDS011;3801;48.876;10.184;2023-10-08T14:38:00;7.93;;;3.63;;
7519;SDS011;3801;48.876;10.184;2023-10-08T14:43:22;6.23;;;3.87;;
7519;SDS011;3801;48.876;10.184;2023-10-08T14:48:26;12.43;;;4.10;;
7519;SDS011;3801;48.876;10.184;2023-10-08T14:53:31;7.57;;;3.53;;
7519;SDS011;3801;48.876;10.184;2023-10-08T14:58:37;8.77;;;3.87;;
7519;SDS011;3801;48.876;10.184;2023-10-08T15:03:42;8.38;;;3.60;;
7519;SDS011;3801;48.876;10.184;2023-10-08T15:08:48;8.90;;;3.78;;
7519;SDS011;3801;48.876;10.184;2023-10-08T15:13:53;8.98;;;3.80;;
7519;SDS011;3801;48.876;10.184;2023-10-08T15:18:57;10.53;;;3.87;;
7519;SDS011;3801;48.876;10.184;2023-10-08T15:24:00;11.17;;;3.70;;
7519;SDS011;3801;48.876;10.184;2023-10-08T15:29:08;9.13;;;4.27;;
7519;SDS011;3801;48.876;10.184;2023-10-08T15:34:12;8.10;;;4.23;;
7519;SDS011;3801;48.876;10.184;2023-10-08T15:39:35;7.10;;;3.77;;
7519;SDS011;3801;48.876;10.184;2023-10-08T15:44:40;8.90;;;3.90;;
7519;SDS011;3801;48.876;10.184;2023-10-08T15:49:43;10.03;;;3.53;;
7519;SDS011;3801;48.876;10.184;2023-10-08T15:54:47;8.77;;;3.73;;
7519;SDS011;3801;48.876;10.184;2023-10-08T15:59:52;9.50;;;3.77;;
7519;SDS011;3801;48.876;10.184;2023-10-08T16:04:56;9.73;;;4.07;;
7519;SDS011;3801;48.876;10.184;2023-10-08T16:09:59;12.87;;;3.57;;
7519;SDS011;3801;48.876;10.184;2023-10-08T16:15:05;10.30;;;4.17;;
7519;SDS011;3801;48.876;10.184;2023-10-08T16:20:08;8.30;;;3.50;;
7519;SDS011;3801;48.876;10.184;2023-10-08T16:25:17;11.97;;;3.83;;
7519;SDS011;3801;48.876;10.184;2023-10-08T16:30:23;9.87;;;4.17;;
7519;SDS011;3801;48.876;10.184;2023-10-08T16:35:29;9.60;;;4.13;;
7519;SDS011;3801;48.876;10.184;2023-10-08T16:40:32;10.17;;;4.20;;
7519;SDS011;3801;48.876;10.184;2023-10-08T16:45:37;9.73;;;3.87;;
7519;SDS011;3801;48.876;10.184;2023-10-08T16:50:41;9.00;;;3.83;;
7519;SDS011;3801;48.876;10.184;2023-10-08T16:55:45;10.23;;;4.53;;
7519;SDS011;3801;48.876;10.184;2023-10-08T17:00:50;10.10;;;3.80;;
7519;SDS011;3801;48.876;10.184;2023-10-08T17:05:54;10.20;;;3.70;;
7519;SDS011;3801;48.876;10.184;2023-10-08T17:10:57;10.23;;;3.90;;
7519;SDS011;3801;48.876;10.184;2023-10-08T17:16:02;9.47;;;3.73;;
7519;SDS011;3801;48.876;10.184;2023-10-08T17:21:07;12.23;;;3.70;;
7519;SDS011;3801;48.876;10.184;2023-10-08T17:26:10;12.63;;;4.13;;
7519;SDS011;3801;48.876;10.184;2023-10-08T17:31:15;9.07;;;3.80;;
7519;SDS011;3801;48.876;10.184;2023-10-08T17:36:18;10.13;;;4.20;;
7519;SDS011;3801;48.876;10.184;2023-10-08T17:41:22;11.10;;;4.20;;
7519;SDS011;3801;48.876;10.184;2023-10-08T17:46:26;9.13;;;4.30;;
7519;SDS011;3801;48.876;10.184;2023-10-08T17:51:31;9.50;;;4.17;;
7519;SDS011;3801;48.876;10.184;2023-10-08T17:56:36;12.20;;;4.20;;
7519;SDS011;3801;48.876;10.184;2023-10-08T18:01:41;9.00;;;5.13;;
7519;SDS011;3801;48.876;10.184;2023-10-08T18:06:46;8.30;;;4.53;;
7519;SDS011;3801;48.876;10.184;2023-10-08T18:11:49;9.90;;;5.43;;
7519;SDS011;3801;48.876;10.184;2023-10-08T18:16:55;9.07;;;4.80;;
7519;SDS011;3801;48.876;10.184;2023-10-08T18:21:59;8.30;;;4.50;;
7519;SDS011;3801;48.876;10.184;2023-10-08T18:27:02;9.57;;;4.53;;
7519;SDS011;3801;48.876;10.184;2023-10-08T18:32:11;9.37;;;4.47;;
7519;SDS011;3801;48.876;10.184;2023-10-08T18:37:15;11.23;;;4.80;;
7519;SDS011;3801;48.876;10.184;2023-10-08T18:42:19;12.50;;;4.67;;
7519;SDS011;3801;48.876;10.184;2023-10-08T18:47:27;12.63;;;5.07;;
7519;SDS011;3801;48.876;10.184;2023-10-08T18:52:30;12.73;;;4.67;;
7519;SDS011;3801;48.876;10.184;2023-10-08T18:57:34;10.63;;;4.27;;
7519;SDS011;3801;48.876;10.184;2023-10-08T19:02:39;6.33;;;4.20;;
7519;SDS011;3801;48.876;10.184;2023-10-08T19:07:44;11.77;;;4.53;;
7519;SDS011;3801;48.876;10.184;2023-10-08T19:12:47;8.43;;;3.90;;
7519;SDS011;3801;48.876;10.184;2023-10-08T19:17:53;11.47;;;4.17;;
7519;SDS011;3801;48.876;10.184;2023-10-08T19:22:58;7.27;;;4.13;;
7519;SDS011;3801;48.876;10.184;2023-10-08T19:28:02;8.80;;;4.23;;
7519;SDS011;3801;48.876;10.184;2023-10-08T19:33:08;8.97;;;4.20;;
7519;SDS011;3801;48.876;10.184;2023-10-08T19:38:13;8.93;;;4.10;;
7519;SDS011;3801;48.876;10.184;2023-10-08T19:43:16;13.30;;;4.57;;
7519;SDS011;3801;48.876;10.184;2023-10-08T19:48:22;11.83;;;4.13;;
7519;SDS011;3801;48.876;10.184;2023-10-08T19:53:25;10.20;;;4.10;;
7519;SDS011;3801;48.876;10.184;2023-10-08T19:58:33;8.50;;;4.53;;
7519;SDS011;3801;48.876;10.184;2023-10-08T20:03:38;8.83;;;3.83;;
7519;SDS011;3801;48.876;10.184;2023-10-08T20:08:42;10.93;;;4.20;;
7519;SDS011;3801;48.876;10.184;2023-10-08T20:13:47;11.57;;;4.03;;
7519;SDS011;3801;48.876;10.184;2023-10-08T20:18:52;9.97;;;4.20;;
7519;SDS011;3801;48.876;10.184;2023-10-08T20:23:57;11.47;;;4.00;;
7519;SDS011;3801;48.876;10.184;2023-10-08T20:29:00;9.50;;;4.40;;
7519;SDS011;3801;48.876;10.184;2023-10-08T20:34:06;10.60;;;4.27;;
7519;SDS011;3801;48.876;10.184;2023-10-08T20:39:09;9.47;;;4.23;;
7519;SDS011;3801;48.876;10.184;2023-10-08T20:44:13;10.23;;;4.40;;
7519;SDS011;3801;48.876;10.184;2023-10-08T20:49:18;10.77;;;4.90;;
7519;SDS011;3801;48.876;10.184;2023-10-08T20:54:23;9.03;;;4.43;;
7519;SDS011;3801;48.876;10.184;2023-10-08T20:59:27;12.43;;;5.10;;
7519;SDS011;3801;48.876;10.184;2023-10-08T21:04:33;11.00;;;4.20;;
7519;SDS011;3801;48.876;10.184;2023-10-08T21:09:37;8.00;;;4.17;;
7519;SDS011;3801;48.876;10.184;2023-10-08T21:14:41;10.27;;;4.30;;
7519;SDS011;3801;48.876;10.184;2023-10-08T21:19:46;9.80;;;4.70;;
7519;SDS011;3801;48.876;10.184;2023-10-08T21:24:49;6.80;;;3.93;;
7519;SDS011;3801;48.876;10.184;2023-10-08T21:29:53;8.20;;;4.50;;
7519;SDS011;3801;48.876;10.184;2023-10-08T21:34:58;13.13;;;5.03;;
7519;SDS011;3801;48.876;10.184;2023-10-08T21:40:03;12.30;;;5.23;;
7519;SDS011;3801;48.876;10.184;2023-10-08T21:45:11;8.63;;;4.63;;
7519;SDS011;3801;48.876;10.184;2023-10-08T21:50:17;9.60;;;4.47;;
7519;SDS011;3801;48.876;10.184;2023-10-08T21:55:20;9.40;;;4.63;;
7519;SDS011;3801;48.876;10.184;2023-10-08T22:00:24;10.97;;;5.03;;
7519;SDS011;3801;48.876;10.184;2023-10-08T22:05:46;10.40;;;4.40;;
7519;SDS011;3801;48.876;10.184;2023-10-08T22:10:50;9.23;;;4.17;;
7519;SDS011;3801;48.876;10.184;2023-10-08T22:15:54;12.10;;;4.50;;
7519;SDS011;3801;48.876;10.184;2023-10-08T22:20:59;13.17;;;4.80;;
7519;SDS011;3801;48.876;10.184;2023-10-08T22:26:10;8.87;;;4.93;;
7519;SDS011;3801;48.876;10.184;2023-10-08T22:31:15;14.67;;;4.63;;
7519;SDS011;3801;48.876;10.184;2023-10-08T22:36:22;13.03;;;4.77;;
7519;SDS011;3801;48.876;10.184;2023-10-08T22:41:37;11.90;;;4.80;;
7519;SDS011;3801;48.876;10.184;2023-10-08T22:46:46;8.93;;;4.43;;
7519;SDS011;3801;48.876;10.184;2023-10-08T22:51:59;12.93;;;5.10;;
7519;SDS011;3801;48.876;10.184;2023-10-08T22:57:05;10.27;;;4.77;;
7519;SDS011;3801;48.876;10.184;2023-10-08T23:02:09;14.40;;;5.07;;
7519;SDS011;3801;48.876;10.184;2023-10-08T23:07:17;10.80;;;4.57;;
7519;SDS011;3801;48.876;10.184;2023-10-08T23:12:21;7.93;;;4.23;;
7519;SDS011;3801;48.876;10.184;2023-10-08T23:17:26;11.17;;;4.43;;
7519;SDS011;3801;48.876;10.184;2023-10-08T23:22:32;14.10;;;4.53;;
7519;SDS011;3801;48.876;10.184;2023-10-08T23:27:36;14.47;;;4.23;;
7519;SDS011;3801;48.876;10.184;2023-10-08T23:32:39;11.20;;;4.63;;
7519;SDS011;3801;48.876;10.184;2023-10-08T23:37:46;10.43;;;4.53;;
7519;SDS011;3801;48.876;10.184;2023-10-08T23:42:55;10.37;;;5.30;;
7519;SDS011;3801;48.876;10.184;2023-10-08T23:48:02;13.13;;;4.60;;
7519;SDS011;3801;48.876;10.184;2023-10-08T23:53:22;15.83;;;4.70;;
7519;SDS011;3801;48.876;10.184;2023-10-08T23:58:30;10.57;;;4.30;;
